Saint Louis, Missouri
Current Conditions -  °F | °C
As of 6:28 AM on Sunday 23 Nov 2014 (Local Time) from KCPS Reporting Station
Broken Clouds Broken Clouds  
Wind Chill: 53°   Ceiling: 2000
Heat Index: 53°   Visibility: 10mi
Dew Point: 47°   Wind: 9mph
Humidity: 80%   Direction: 160°SSE
Pressure: 29.75"   Gusts: NA
Location:  38.63°N, 90.24°W
Report Text: KCPS 231228Z 16008KT 10SM BKN020 12/08 A2975 RMK AO2 T01170083
Loading
Personal Weather Stations






























Interactive Weather Map New forecast layout! Learn more

10-Day Weather Forecast

Advertisements
Track Severe Weather on mobile